sensor_id;sensor_type;location;lat;lon;timestamp;P1;durP1;ratioP1;P2;durP2;ratioP2
37753;SDS011;23596;52.520;13.464;2023-06-05T00:02:00;9.00;;;1.67;;
37753;SDS011;23596;52.520;13.464;2023-06-05T00:04:26;1.40;;;1.20;;
37753;SDS011;23596;52.520;13.464;2023-06-05T00:06:52;5.15;;;1.55;;
37753;SDS011;23596;52.520;13.464;2023-06-05T00:09:19;4.55;;;1.60;;
37753;SDS011;23596;52.520;13.464;2023-06-05T00:11:45;8.20;;;1.60;;
37753;SDS011;23596;52.520;13.464;2023-06-05T00:14:10;3.20;;;1.47;;
37753;SDS011;23596;52.520;13.464;2023-06-05T00:16:36;6.77;;;1.37;;
37753;SDS011;23596;52.520;13.464;2023-06-05T00:19:02;9.10;;;1.87;;
37753;SDS011;23596;52.520;13.464;2023-06-05T00:21:28;12.32;;;1.20;;
37753;SDS011;23596;52.520;13.464;2023-06-05T00:23:53;6.20;;;1.30;;
37753;SDS011;23596;52.520;13.464;2023-06-05T00:26:19;8.57;;;1.20;;
37753;SDS011;23596;52.520;13.464;2023-06-05T00:28:45;3.87;;;1.30;;
37753;SDS011;23596;52.520;13.464;2023-06-05T00:31:11;6.68;;;2.15;;
37753;SDS011;23596;52.520;13.464;2023-06-05T00:37:00;3.55;;;1.20;;
37753;SDS011;23596;52.520;13.464;2023-06-05T00:39:25;6.18;;;1.30;;
37753;SDS011;23596;52.520;13.464;2023-06-05T00:41:51;6.88;;;1.02;;
37753;SDS011;23596;52.520;13.464;2023-06-05T00:44:17;4.75;;;1.60;;
37753;SDS011;23596;52.520;13.464;2023-06-05T00:46:43;2.60;;;1.30;;
37753;SDS011;23596;52.520;13.464;2023-06-05T00:49:09;5.77;;;1.37;;
37753;SDS011;23596;52.520;13.464;2023-06-05T00:51:36;5.25;;;1.33;;
37753;SDS011;23596;52.520;13.464;2023-06-05T00:54:02;2.28;;;1.20;;
37753;SDS011;23596;52.520;13.464;2023-06-05T00:56:29;8.35;;;1.98;;
37753;SDS011;23596;52.520;13.464;2023-06-05T00:58:54;1.67;;;0.95;;
37753;SDS011;23596;52.520;13.464;2023-06-05T01:01:23;3.50;;;1.30;;
37753;SDS011;23596;52.520;13.464;2023-06-05T01:03:49;5.40;;;1.45;;
37753;SDS011;23596;52.520;13.464;2023-06-05T01:06:15;2.45;;;1.27;;
37753;SDS011;23596;52.520;13.464;2023-06-05T01:08:42;4.32;;;1.50;;
37753;SDS011;23596;52.520;13.464;2023-06-05T01:14:19;6.30;;;1.20;;
37753;SDS011;23596;52.520;13.464;2023-06-05T01:16:53;4.57;;;1.70;;
37753;SDS011;23596;52.520;13.464;2023-06-05T01:19:19;4.55;;;1.52;;
37753;SDS011;23596;52.520;13.464;2023-06-05T01:21:48;2.88;;;1.27;;
37753;SDS011;23596;52.520;13.464;2023-06-05T01:24:14;5.82;;;1.55;;
37753;SDS011;23596;52.520;13.464;2023-06-05T01:29:57;4.38;;;1.67;;
37753;SDS011;23596;52.520;13.464;2023-06-05T01:35:19;3.47;;;1.45;;
37753;SDS011;23596;52.520;13.464;2023-06-05T01:37:47;4.32;;;1.45;;
37753;SDS011;23596;52.520;13.464;2023-06-05T01:40:19;3.95;;;1.80;;
37753;SDS011;23596;52.520;13.464;2023-06-05T01:42:46;6.03;;;1.77;;
37753;SDS011;23596;52.520;13.464;2023-06-05T01:45:13;4.18;;;1.60;;
37753;SDS011;23596;52.520;13.464;2023-06-05T01:47:40;6.05;;;1.30;;
37753;SDS011;23596;52.520;13.464;2023-06-05T01:50:07;5.57;;;1.40;;
37753;SDS011;23596;52.520;13.464;2023-06-05T01:52:34;4.28;;;1.40;;
37753;SDS011;23596;52.520;13.464;2023-06-05T01:55:03;3.83;;;1.40;;
37753;SDS011;23596;52.520;13.464;2023-06-05T01:57:29;6.55;;;1.20;;
37753;SDS011;23596;52.520;13.464;2023-06-05T01:59:56;9.85;;;1.15;;
37753;SDS011;23596;52.520;13.464;2023-06-05T02:02:22;2.50;;;1.30;;
37753;SDS011;23596;52.520;13.464;2023-06-05T02:04:48;3.42;;;1.45;;
37753;SDS011;23596;52.520;13.464;2023-06-05T02:07:14;9.93;;;1.42;;
37753;SDS011;23596;52.520;13.464;2023-06-05T02:09:40;3.65;;;1.30;;
37753;SDS011;23596;52.520;13.464;2023-06-05T02:12:06;7.50;;;1.90;;
37753;SDS011;23596;52.520;13.464;2023-06-05T02:14:32;1.92;;;1.20;;
37753;SDS011;23596;52.520;13.464;2023-06-05T02:17:00;3.78;;;1.15;;
37753;SDS011;23596;52.520;13.464;2023-06-05T02:19:33;6.28;;;1.40;;
37753;SDS011;23596;52.520;13.464;2023-06-05T02:21:59;3.50;;;1.50;;
37753;SDS011;23596;52.520;13.464;2023-06-05T02:24:24;8.05;;;2.22;;
37753;SDS011;23596;52.520;13.464;2023-06-05T02:26:51;2.00;;;1.42;;
37753;SDS011;23596;52.520;13.464;2023-06-05T02:29:16;14.07;;;3.15;;
37753;SDS011;23596;52.520;13.464;2023-06-05T02:31:43;9.33;;;1.73;;
37753;SDS011;23596;52.520;13.464;2023-06-05T02:34:08;5.97;;;1.55;;
37753;SDS011;23596;52.520;13.464;2023-06-05T02:36:34;3.63;;;1.63;;
37753;SDS011;23596;52.520;13.464;2023-06-05T02:39:00;2.58;;;1.38;;
37753;SDS011;23596;52.520;13.464;2023-06-05T02:41:27;4.07;;;1.60;;
37753;SDS011;23596;52.520;13.464;2023-06-05T02:43:53;3.00;;;1.50;;
37753;SDS011;23596;52.520;13.464;2023-06-05T02:46:21;6.85;;;1.63;;
37753;SDS011;23596;52.520;13.464;2023-06-05T02:48:49;6.47;;;1.40;;
37753;SDS011;23596;52.520;13.464;2023-06-05T02:51:16;8.35;;;1.70;;
37753;SDS011;23596;52.520;13.464;2023-06-05T02:53:41;8.25;;;2.42;;
37753;SDS011;23596;52.520;13.464;2023-06-05T02:56:07;7.40;;;2.22;;
37753;SDS011;23596;52.520;13.464;2023-06-05T02:58:33;3.58;;;1.92;;
37753;SDS011;23596;52.520;13.464;2023-06-05T03:00:59;3.72;;;1.90;;
37753;SDS011;23596;52.520;13.464;2023-06-05T03:03:31;10.65;;;2.10;;
37753;SDS011;23596;52.520;13.464;2023-06-05T03:05:58;7.28;;;1.92;;
37753;SDS011;23596;52.520;13.464;2023-06-05T03:08:35;8.75;;;2.50;;
37753;SDS011;23596;52.520;13.464;2023-06-05T03:11:02;7.95;;;2.50;;
37753;SDS011;23596;52.520;13.464;2023-06-05T03:13:28;5.20;;;2.00;;
37753;SDS011;23596;52.520;13.464;2023-06-05T03:15:55;4.32;;;1.40;;
37753;SDS011;23596;52.520;13.464;2023-06-05T03:18:25;4.95;;;1.60;;
37753;SDS011;23596;52.520;13.464;2023-06-05T03:20:51;3.60;;;1.63;;
37753;SDS011;23596;52.520;13.464;2023-06-05T03:23:24;3.13;;;1.50;;
37753;SDS011;23596;52.520;13.464;2023-06-05T03:25:50;6.32;;;1.38;;
37753;SDS011;23596;52.520;13.464;2023-06-05T03:28:17;8.55;;;1.90;;
37753;SDS011;23596;52.520;13.464;2023-06-05T03:30:43;7.65;;;1.50;;
37753;SDS011;23596;52.520;13.464;2023-06-05T03:33:10;4.75;;;1.38;;
37753;SDS011;23596;52.520;13.464;2023-06-05T03:35:35;3.58;;;1.48;;
37753;SDS011;23596;52.520;13.464;2023-06-05T03:38:01;17.77;;;1.88;;
37753;SDS011;23596;52.520;13.464;2023-06-05T03:40:28;7.95;;;1.77;;
37753;SDS011;23596;52.520;13.464;2023-06-05T03:42:54;4.47;;;1.70;;
37753;SDS011;23596;52.520;13.464;2023-06-05T03:45:19;6.97;;;1.90;;
37753;SDS011;23596;52.520;13.464;2023-06-05T03:47:45;5.32;;;2.00;;
37753;SDS011;23596;52.520;13.464;2023-06-05T03:50:13;5.43;;;1.50;;
37753;SDS011;23596;52.520;13.464;2023-06-05T03:52:40;8.80;;;2.00;;
37753;SDS011;23596;52.520;13.464;2023-06-05T03:55:09;11.33;;;1.93;;
37753;SDS011;23596;52.520;13.464;2023-06-05T03:57:35;3.38;;;1.50;;
37753;SDS011;23596;52.520;13.464;2023-06-05T04:00:03;4.07;;;2.22;;
37753;SDS011;23596;52.520;13.464;2023-06-05T04:02:34;9.85;;;1.90;;
37753;SDS011;23596;52.520;13.464;2023-06-05T04:05:01;2.67;;;1.60;;
37753;SDS011;23596;52.520;13.464;2023-06-05T04:07:28;5.95;;;1.83;;
37753;SDS011;23596;52.520;13.464;2023-06-05T04:09:54;10.20;;;1.97;;
37753;SDS011;23596;52.520;13.464;2023-06-05T04:12:20;4.33;;;1.43;;
37753;SDS011;23596;52.520;13.464;2023-06-05T04:14:46;8.70;;;2.03;;
37753;SDS011;23596;52.520;13.464;2023-06-05T04:17:12;7.07;;;2.00;;
37753;SDS011;23596;52.520;13.464;2023-06-05T04:19:39;13.32;;;2.13;;
37753;SDS011;23596;52.520;13.464;2023-06-05T04:22:05;9.40;;;2.13;;
37753;SDS011;23596;52.520;13.464;2023-06-05T04:24:31;4.90;;;1.97;;
37753;SDS011;23596;52.520;13.464;2023-06-05T04:26:57;5.13;;;1.55;;
37753;SDS011;23596;52.520;13.464;2023-06-05T04:29:25;8.73;;;2.40;;
37753;SDS011;23596;52.520;13.464;2023-06-05T04:31:51;9.05;;;1.88;;
37753;SDS011;23596;52.520;13.464;2023-06-05T04:34:18;4.80;;;1.60;;
37753;SDS011;23596;52.520;13.464;2023-06-05T04:36:44;8.40;;;1.88;;
37753;SDS011;23596;52.520;13.464;2023-06-05T04:39:10;8.40;;;2.10;;
37753;SDS011;23596;52.520;13.464;2023-06-05T04:41:43;15.65;;;1.92;;
37753;SDS011;23596;52.520;13.464;2023-06-05T04:44:12;7.22;;;2.00;;
37753;SDS011;23596;52.520;13.464;2023-06-05T04:46:45;11.98;;;1.83;;
37753;SDS011;23596;52.520;13.464;2023-06-05T04:49:11;6.38;;;1.80;;
37753;SDS011;23596;52.520;13.464;2023-06-05T04:51:37;8.52;;;2.08;;
37753;SDS011;23596;52.520;13.464;2023-06-05T04:54:04;14.77;;;1.75;;
37753;SDS011;23596;52.520;13.464;2023-06-05T04:56:30;6.35;;;1.50;;
37753;SDS011;23596;52.520;13.464;2023-06-05T04:59:00;11.80;;;2.03;;
37753;SDS011;23596;52.520;13.464;2023-06-05T05:01:27;8.27;;;1.80;;
37753;SDS011;23596;52.520;13.464;2023-06-05T05:03:53;4.73;;;1.90;;
37753;SDS011;23596;52.520;13.464;2023-06-05T05:06:21;4.32;;;1.95;;
37753;SDS011;23596;52.520;13.464;2023-06-05T05:08:47;4.95;;;1.95;;
37753;SDS011;23596;52.520;13.464;2023-06-05T05:11:14;9.60;;;2.83;;
37753;SDS011;23596;52.520;13.464;2023-06-05T05:13:40;10.98;;;2.92;;
37753;SDS011;23596;52.520;13.464;2023-06-05T05:16:10;10.90;;;3.08;;
37753;SDS011;23596;52.520;13.464;2023-06-05T05:18:39;7.65;;;2.28;;
37753;SDS011;23596;52.520;13.464;2023-06-05T05:21:08;9.63;;;3.03;;
37753;SDS011;23596;52.520;13.464;2023-06-05T05:23:37;11.13;;;2.38;;
37753;SDS011;23596;52.520;13.464;2023-06-05T05:26:02;12.18;;;2.47;;
37753;SDS011;23596;52.520;13.464;2023-06-05T05:28:37;15.57;;;3.15;;
37753;SDS011;23596;52.520;13.464;2023-06-05T05:31:05;8.68;;;2.97;;
37753;SDS011;23596;52.520;13.464;2023-06-05T05:33:34;7.07;;;2.30;;
37753;SDS011;23596;52.520;13.464;2023-06-05T05:36:00;5.47;;;2.47;;
37753;SDS011;23596;52.520;13.464;2023-06-05T05:38:25;12.25;;;2.53;;
37753;SDS011;23596;52.520;13.464;2023-06-05T05:40:51;20.97;;;2.97;;
37753;SDS011;23596;52.520;13.464;2023-06-05T05:43:16;16.05;;;2.97;;
37753;SDS011;23596;52.520;13.464;2023-06-05T05:45:42;16.40;;;2.20;;
37753;SDS011;23596;52.520;13.464;2023-06-05T05:48:08;6.45;;;1.77;;
37753;SDS011;23596;52.520;13.464;2023-06-05T05:50:34;7.20;;;1.75;;
37753;SDS011;23596;52.520;13.464;2023-06-05T05:53:00;6.97;;;1.95;;
37753;SDS011;23596;52.520;13.464;2023-06-05T05:55:26;6.53;;;2.27;;
37753;SDS011;23596;52.520;13.464;2023-06-05T05:57:52;4.10;;;1.90;;
37753;SDS011;23596;52.520;13.464;2023-06-05T06:00:18;6.80;;;1.98;;
37753;SDS011;23596;52.520;13.464;2023-06-05T06:02:43;8.25;;;2.03;;
37753;SDS011;23596;52.520;13.464;2023-06-05T06:05:09;8.93;;;2.10;;
37753;SDS011;23596;52.520;13.464;2023-06-05T06:07:37;4.00;;;1.85;;
37753;SDS011;23596;52.520;13.464;2023-06-05T06:10:05;11.38;;;3.50;;
37753;SDS011;23596;52.520;13.464;2023-06-05T06:12:33;10.02;;;2.17;;
37753;SDS011;23596;52.520;13.464;2023-06-05T06:17:25;7.60;;;2.75;;
37753;SDS011;23596;52.520;13.464;2023-06-05T06:22:18;6.68;;;1.95;;
37753;SDS011;23596;52.520;13.464;2023-06-05T06:24:44;10.90;;;2.30;;
37753;SDS011;23596;52.520;13.464;2023-06-05T06:27:09;11.57;;;2.40;;
37753;SDS011;23596;52.520;13.464;2023-06-05T06:29:45;4.75;;;2.10;;
37753;SDS011;23596;52.520;13.464;2023-06-05T06:32:17;13.75;;;1.90;;
37753;SDS011;23596;52.520;13.464;2023-06-05T06:34:43;4.50;;;1.90;;
37753;SDS011;23596;52.520;13.464;2023-06-05T06:37:13;9.60;;;2.50;;
37753;SDS011;23596;52.520;13.464;2023-06-05T06:39:42;8.60;;;1.77;;
37753;SDS011;23596;52.520;13.464;2023-06-05T06:42:09;9.95;;;2.78;;
37753;SDS011;23596;52.520;13.464;2023-06-05T06:44:35;8.50;;;2.00;;
37753;SDS011;23596;52.520;13.464;2023-06-05T06:47:01;8.13;;;2.38;;
37753;SDS011;23596;52.520;13.464;2023-06-05T06:49:27;8.77;;;2.07;;
37753;SDS011;23596;52.520;13.464;2023-06-05T06:51:53;10.50;;;1.97;;
37753;SDS011;23596;52.520;13.464;2023-06-05T06:54:19;8.02;;;1.90;;
37753;SDS011;23596;52.520;13.464;2023-06-05T06:56:45;15.20;;;2.67;;
37753;SDS011;23596;52.520;13.464;2023-06-05T06:59:11;9.73;;;2.03;;
37753;SDS011;23596;52.520;13.464;2023-06-05T07:01:44;6.32;;;1.67;;
37753;SDS011;23596;52.520;13.464;2023-06-05T07:04:17;4.00;;;1.65;;
37753;SDS011;23596;52.520;13.464;2023-06-05T07:06:45;6.03;;;1.60;;
37753;SDS011;23596;52.520;13.464;2023-06-05T07:09:12;7.95;;;2.15;;
37753;SDS011;23596;52.520;13.464;2023-06-05T07:11:38;15.32;;;2.33;;
37753;SDS011;23596;52.520;13.464;2023-06-05T07:14:04;6.63;;;1.87;;
37753;SDS011;23596;52.520;13.464;2023-06-05T07:16:30;5.60;;;1.87;;
37753;SDS011;23596;52.520;13.464;2023-06-05T07:18:56;14.38;;;2.30;;
37753;SDS011;23596;52.520;13.464;2023-06-05T07:21:22;8.90;;;2.30;;
37753;SDS011;23596;52.520;13.464;2023-06-05T07:23:48;9.93;;;1.83;;
37753;SDS011;23596;52.520;13.464;2023-06-05T07:26:17;3.65;;;1.70;;
37753;SDS011;23596;52.520;13.464;2023-06-05T07:28:43;6.07;;;1.88;;
37753;SDS011;23596;52.520;13.464;2023-06-05T07:31:09;7.47;;;2.33;;
37753;SDS011;23596;52.520;13.464;2023-06-05T07:33:35;5.07;;;1.77;;
37753;SDS011;23596;52.520;13.464;2023-06-05T07:36:01;8.35;;;1.88;;
37753;SDS011;23596;52.520;13.464;2023-06-05T07:38:27;11.43;;;1.67;;
37753;SDS011;23596;52.520;13.464;2023-06-05T07:40:54;6.00;;;1.67;;
37753;SDS011;23596;52.520;13.464;2023-06-05T07:43:23;8.00;;;1.80;;
37753;SDS011;23596;52.520;13.464;2023-06-05T07:45:49;4.38;;;1.42;;
37753;SDS011;23596;52.520;13.464;2023-06-05T07:48:15;3.27;;;1.70;;
37753;SDS011;23596;52.520;13.464;2023-06-05T07:50:40;7.43;;;1.70;;
37753;SDS011;23596;52.520;13.464;2023-06-05T07:53:06;5.40;;;1.98;;
37753;SDS011;23596;52.520;13.464;2023-06-05T07:55:31;10.93;;;1.90;;
37753;SDS011;23596;52.520;13.464;2023-06-05T07:57:57;10.63;;;2.07;;
37753;SDS011;23596;52.520;13.464;2023-06-05T08:00:25;3.50;;;1.73;;
37753;SDS011;23596;52.520;13.464;2023-06-05T08:02:51;9.20;;;1.63;;
37753;SDS011;23596;52.520;13.464;2023-06-05T08:05:18;10.40;;;1.60;;
37753;SDS011;23596;52.520;13.464;2023-06-05T08:07:44;6.53;;;2.00;;
37753;SDS011;23596;52.520;13.464;2023-06-05T08:10:10;6.40;;;1.70;;
37753;SDS011;23596;52.520;13.464;2023-06-05T08:12:37;8.38;;;1.85;;
37753;SDS011;23596;52.520;13.464;2023-06-05T08:15:03;4.00;;;1.67;;
37753;SDS011;23596;52.520;13.464;2023-06-05T08:17:29;8.07;;;2.28;;
37753;SDS011;23596;52.520;13.464;2023-06-05T08:19:54;4.20;;;1.13;;
37753;SDS011;23596;52.520;13.464;2023-06-05T08:22:20;5.97;;;1.73;;
37753;SDS011;23596;52.520;13.464;2023-06-05T08:24:47;7.90;;;1.75;;
37753;SDS011;23596;52.520;13.464;2023-06-05T08:27:15;12.63;;;2.05;;
37753;SDS011;23596;52.520;13.464;2023-06-05T08:29:41;5.82;;;1.73;;
37753;SDS011;23596;52.520;13.464;2023-06-05T08:32:07;8.93;;;1.53;;
37753;SDS011;23596;52.520;13.464;2023-06-05T08:34:32;4.57;;;1.90;;
37753;SDS011;23596;52.520;13.464;2023-06-05T08:36:58;12.20;;;1.50;;
37753;SDS011;23596;52.520;13.464;2023-06-05T08:39:24;3.07;;;1.40;;
37753;SDS011;23596;52.520;13.464;2023-06-05T08:41:54;6.35;;;1.50;;
37753;SDS011;23596;52.520;13.464;2023-06-05T08:44:24;6.97;;;1.88;;
37753;SDS011;23596;52.520;13.464;2023-06-05T08:46:51;19.88;;;3.35;;
37753;SDS011;23596;52.520;13.464;2023-06-05T08:49:20;4.88;;;1.20;;
37753;SDS011;23596;52.520;13.464;2023-06-05T08:51:49;7.43;;;1.45;;
37753;SDS011;23596;52.520;13.464;2023-06-05T08:54:17;7.32;;;1.98;;
37753;SDS011;23596;52.520;13.464;2023-06-05T08:56:44;5.18;;;2.20;;
37753;SDS011;23596;52.520;13.464;2023-06-05T08:59:13;11.40;;;1.80;;
37753;SDS011;23596;52.520;13.464;2023-06-05T09:01:39;14.93;;;1.95;;
37753;SDS011;23596;52.520;13.464;2023-06-05T09:04:05;5.83;;;1.77;;
37753;SDS011;23596;52.520;13.464;2023-06-05T09:06:31;3.43;;;1.60;;
37753;SDS011;23596;52.520;13.464;2023-06-05T09:08:58;7.03;;;1.92;;
37753;SDS011;23596;52.520;13.464;2023-06-05T09:11:27;15.13;;;1.42;;
37753;SDS011;23596;52.520;13.464;2023-06-05T09:13:55;3.50;;;1.38;;
37753;SDS011;23596;52.520;13.464;2023-06-05T09:16:22;8.07;;;1.52;;
37753;SDS011;23596;52.520;13.464;2023-06-05T09:18:58;2.55;;;1.33;;
37753;SDS011;23596;52.520;13.464;2023-06-05T09:21:27;4.40;;;1.93;;
37753;SDS011;23596;52.520;13.464;2023-06-05T09:24:15;8.48;;;1.88;;
37753;SDS011;23596;52.520;13.464;2023-06-05T09:29:29;6.18;;;1.85;;
37753;SDS011;23596;52.520;13.464;2023-06-05T09:31:57;7.63;;;1.58;;
37753;SDS011;23596;52.520;13.464;2023-06-05T09:34:37;2.50;;;1.60;;
37753;SDS011;23596;52.520;13.464;2023-06-05T09:37:05;5.82;;;1.58;;
37753;SDS011;23596;52.520;13.464;2023-06-05T09:39:32;17.55;;;2.00;;
37753;SDS011;23596;52.520;13.464;2023-06-05T09:42:00;3.35;;;1.35;;
37753;SDS011;23596;52.520;13.464;2023-06-05T09:44:26;7.83;;;2.30;;
37753;SDS011;23596;52.520;13.464;2023-06-05T09:47:06;4.10;;;1.65;;
37753;SDS011;23596;52.520;13.464;2023-06-05T09:52:05;10.77;;;1.88;;
37753;SDS011;23596;52.520;13.464;2023-06-05T09:57:01;2.95;;;1.15;;
37753;SDS011;23596;52.520;13.464;2023-06-05T09:59:29;9.70;;;1.95;;
37753;SDS011;23596;52.520;13.464;2023-06-05T10:01:58;4.95;;;1.77;;
37753;SDS011;23596;52.520;13.464;2023-06-05T10:04:32;5.78;;;1.48;;
37753;SDS011;23596;52.520;13.464;2023-06-05T10:07:03;5.57;;;1.75;;
37753;SDS011;23596;52.520;13.464;2023-06-05T10:09:30;4.15;;;1.60;;
37753;SDS011;23596;52.520;13.464;2023-06-05T10:11:59;12.02;;;1.38;;
37753;SDS011;23596;52.520;13.464;2023-06-05T10:14:28;3.60;;;1.55;;
37753;SDS011;23596;52.520;13.464;2023-06-05T10:16:54;2.20;;;1.33;;
37753;SDS011;23596;52.520;13.464;2023-06-05T10:19:21;5.30;;;1.40;;
37753;SDS011;23596;52.520;13.464;2023-06-05T10:21:50;4.70;;;1.30;;
37753;SDS011;23596;52.520;13.464;2023-06-05T10:40:42;6.70;;;2.08;;
37753;SDS011;23596;52.520;13.464;2023-06-05T10:43:28;2.65;;;1.38;;
37753;SDS011;23596;52.520;13.464;2023-06-05T10:46:01;3.28;;;1.55;;
37753;SDS011;23596;52.520;13.464;2023-06-05T10:51:38;2.60;;;1.33;;
37753;SDS011;23596;52.520;13.464;2023-06-05T10:54:09;4.15;;;1.33;;
37753;SDS011;23596;52.520;13.464;2023-06-05T10:59:17;20.88;;;1.88;;
37753;SDS011;23596;52.520;13.464;2023-06-05T11:07:16;3.05;;;1.50;;
37753;SDS011;23596;52.520;13.464;2023-06-05T11:13:13;4.30;;;1.58;;
37753;SDS011;23596;52.520;13.464;2023-06-05T11:15:33;6.13;;;1.73;;
37753;SDS011;23596;52.520;13.464;2023-06-05T11:20:50;5.90;;;1.73;;
37753;SDS011;23596;52.520;13.464;2023-06-05T11:23:16;2.77;;;1.57;;
37753;SDS011;23596;52.520;13.464;2023-06-05T11:25:42;5.87;;;1.80;;
37753;SDS011;23596;52.520;13.464;2023-06-05T11:28:07;7.80;;;1.93;;
37753;SDS011;23596;52.520;13.464;2023-06-05T11:30:41;4.85;;;1.70;;
37753;SDS011;23596;52.520;13.464;2023-06-05T11:33:08;3.50;;;1.83;;
37753;SDS011;23596;52.520;13.464;2023-06-05T11:35:39;4.85;;;2.05;;
37753;SDS011;23596;52.520;13.464;2023-06-05T11:40:34;12.85;;;2.25;;
37753;SDS011;23596;52.520;13.464;2023-06-05T11:43:04;5.13;;;2.10;;
37753;SDS011;23596;52.520;13.464;2023-06-05T11:45:35;11.80;;;1.73;;
37753;SDS011;23596;52.520;13.464;2023-06-05T11:48:08;6.18;;;2.08;;
37753;SDS011;23596;52.520;13.464;2023-06-05T11:50:37;6.13;;;1.83;;
37753;SDS011;23596;52.520;13.464;2023-06-05T11:53:05;5.95;;;2.03;;
37753;SDS011;23596;52.520;13.464;2023-06-05T11:55:35;9.65;;;2.13;;
37753;SDS011;23596;52.520;13.464;2023-06-05T11:58:31;4.93;;;1.98;;
37753;SDS011;23596;52.520;13.464;2023-06-05T12:01:05;4.65;;;1.98;;
37753;SDS011;23596;52.520;13.464;2023-06-05T12:03:43;8.95;;;1.67;;
37753;SDS011;23596;52.520;13.464;2023-06-05T12:06:10;6.25;;;2.40;;
37753;SDS011;23596;52.520;13.464;2023-06-05T12:08:38;4.72;;;1.60;;
37753;SDS011;23596;52.520;13.464;2023-06-05T12:11:18;4.40;;;2.03;;
37753;SDS011;23596;52.520;13.464;2023-06-05T12:16:19;7.70;;;2.17;;
37753;SDS011;23596;52.520;13.464;2023-06-05T12:18:55;10.88;;;1.90;;
37753;SDS011;23596;52.520;13.464;2023-06-05T12:21:25;5.57;;;1.70;;
37753;SDS011;23596;52.520;13.464;2023-06-05T12:23:52;3.80;;;1.85;;
37753;SDS011;23596;52.520;13.464;2023-06-05T12:26:26;6.63;;;2.33;;
37753;SDS011;23596;52.520;13.464;2023-06-05T12:29:02;5.32;;;2.03;;
37753;SDS011;23596;52.520;13.464;2023-06-05T12:31:32;12.50;;;2.40;;
37753;SDS011;23596;52.520;13.464;2023-06-05T12:33:59;7.00;;;2.33;;
37753;SDS011;23596;52.520;13.464;2023-06-05T12:36:25;4.37;;;1.97;;
37753;SDS011;23596;52.520;13.464;2023-06-05T12:38:53;8.50;;;2.42;;
37753;SDS011;23596;52.520;13.464;2023-06-05T12:41:19;2.50;;;2.03;;
37753;SDS011;23596;52.520;13.464;2023-06-05T12:43:45;5.27;;;2.73;;
37753;SDS011;23596;52.520;13.464;2023-06-05T12:46:11;8.27;;;2.00;;
37753;SDS011;23596;52.520;13.464;2023-06-05T12:48:38;7.65;;;1.95;;
37753;SDS011;23596;52.520;13.464;2023-06-05T12:51:05;8.82;;;2.00;;
37753;SDS011;23596;52.520;13.464;2023-06-05T12:53:30;8.27;;;2.47;;
37753;SDS011;23596;52.520;13.464;2023-06-05T12:55:56;4.47;;;2.50;;
37753;SDS011;23596;52.520;13.464;2023-06-05T12:58:21;5.33;;;2.23;;
37753;SDS011;23596;52.520;13.464;2023-06-05T13:00:47;10.30;;;1.90;;
37753;SDS011;23596;52.520;13.464;2023-06-05T13:03:13;4.47;;;2.50;;
37753;SDS011;23596;52.520;13.464;2023-06-05T13:05:38;10.63;;;2.45;;
37753;SDS011;23596;52.520;13.464;2023-06-05T13:08:04;9.38;;;2.53;;
37753;SDS011;23596;52.520;13.464;2023-06-05T13:12:56;6.65;;;2.08;;
37753;SDS011;23596;52.520;13.464;2023-06-05T13:15:22;5.23;;;2.10;;
37753;SDS011;23596;52.520;13.464;2023-06-05T13:17:47;12.20;;;2.47;;
37753;SDS011;23596;52.520;13.464;2023-06-05T13:20:14;4.20;;;2.10;;
37753;SDS011;23596;52.520;13.464;2023-06-05T13:22:40;3.72;;;2.13;;
37753;SDS011;23596;52.520;13.464;2023-06-05T13:25:06;7.45;;;2.17;;
37753;SDS011;23596;52.520;13.464;2023-06-05T13:27:33;7.78;;;2.10;;
37753;SDS011;23596;52.520;13.464;2023-06-05T13:29:59;6.88;;;2.47;;
37753;SDS011;23596;52.520;13.464;2023-06-05T13:32:25;3.97;;;2.33;;
37753;SDS011;23596;52.520;13.464;2023-06-05T13:34:50;5.47;;;2.45;;
37753;SDS011;23596;52.520;13.464;2023-06-05T13:37:18;6.93;;;2.95;;
37753;SDS011;23596;52.520;13.464;2023-06-05T13:39:45;7.63;;;2.55;;
37753;SDS011;23596;52.520;13.464;2023-06-05T13:42:11;5.72;;;2.70;;
37753;SDS011;23596;52.520;13.464;2023-06-05T13:44:36;4.68;;;2.30;;
37753;SDS011;23596;52.520;13.464;2023-06-05T13:47:02;5.55;;;2.33;;
37753;SDS011;23596;52.520;13.464;2023-06-05T13:49:29;11.45;;;2.85;;
37753;SDS011;23596;52.520;13.464;2023-06-05T13:51:56;4.65;;;2.50;;
37753;SDS011;23596;52.520;13.464;2023-06-05T13:56:47;16.48;;;3.58;;
37753;SDS011;23596;52.520;13.464;2023-06-05T14:01:38;4.68;;;2.40;;
37753;SDS011;23596;52.520;13.464;2023-06-05T14:06:30;4.50;;;2.70;;
37753;SDS011;23596;52.520;13.464;2023-06-05T14:08:56;4.65;;;2.33;;
37753;SDS011;23596;52.520;13.464;2023-06-05T14:13:47;3.10;;;2.33;;
37753;SDS011;23596;52.520;13.464;2023-06-05T14:18:41;3.05;;;2.42;;
37753;SDS011;23596;52.520;13.464;2023-06-05T14:21:07;4.88;;;2.80;;
37753;SDS011;23596;52.520;13.464;2023-06-05T14:23:33;5.18;;;2.70;;
37753;SDS011;23596;52.520;13.464;2023-06-05T14:25:58;3.83;;;2.72;;
37753;SDS011;23596;52.520;13.464;2023-06-05T14:28:24;5.63;;;2.83;;
37753;SDS011;23596;52.520;13.464;2023-06-05T14:30:50;5.72;;;2.78;;
37753;SDS011;23596;52.520;13.464;2023-06-05T14:33:16;4.43;;;2.42;;
37753;SDS011;23596;52.520;13.464;2023-06-05T14:35:44;13.20;;;2.80;;
37753;SDS011;23596;52.520;13.464;2023-06-05T14:38:09;6.43;;;3.03;;
37753;SDS011;23596;52.520;13.464;2023-06-05T14:40:37;5.15;;;2.70;;
37753;SDS011;23596;52.520;13.464;2023-06-05T14:43:07;4.82;;;2.70;;
37753;SDS011;23596;52.520;13.464;2023-06-05T14:45:33;9.68;;;2.75;;
37753;SDS011;23596;52.520;13.464;2023-06-05T14:47:59;4.43;;;2.63;;
37753;SDS011;23596;52.520;13.464;2023-06-05T14:50:24;8.10;;;3.10;;
37753;SDS011;23596;52.520;13.464;2023-06-05T14:52:50;4.15;;;2.97;;
37753;SDS011;23596;52.520;13.464;2023-06-05T14:55:16;8.20;;;2.53;;
37753;SDS011;23596;52.520;13.464;2023-06-05T14:57:41;8.13;;;2.92;;
37753;SDS011;23596;52.520;13.464;2023-06-05T15:02:33;6.28;;;2.58;;
37753;SDS011;23596;52.520;13.464;2023-06-05T15:04:59;11.18;;;2.50;;
37753;SDS011;23596;52.520;13.464;2023-06-05T15:10:00;6.47;;;2.83;;
37753;SDS011;23596;52.520;13.464;2023-06-05T15:12:26;2.67;;;2.17;;
37753;SDS011;23596;52.520;13.464;2023-06-05T15:14:52;9.90;;;3.17;;
37753;SDS011;23596;52.520;13.464;2023-06-05T15:17:17;15.77;;;3.00;;
37753;SDS011;23596;52.520;13.464;2023-06-05T15:22:10;13.02;;;2.63;;
37753;SDS011;23596;52.520;13.464;2023-06-05T15:24:35;4.95;;;2.60;;
37753;SDS011;23596;52.520;13.464;2023-06-05T15:27:01;7.82;;;2.88;;
37753;SDS011;23596;52.520;13.464;2023-06-05T15:29:28;7.95;;;2.50;;
37753;SDS011;23596;52.520;13.464;2023-06-05T15:31:53;6.85;;;2.47;;
37753;SDS011;23596;52.520;13.464;2023-06-05T15:34:19;7.72;;;2.03;;
37753;SDS011;23596;52.520;13.464;2023-06-05T15:36:45;5.03;;;2.42;;
37753;SDS011;23596;52.520;13.464;2023-06-05T15:39:11;14.32;;;2.58;;
37753;SDS011;23596;52.520;13.464;2023-06-05T15:41:37;3.63;;;2.17;;
37753;SDS011;23596;52.520;13.464;2023-06-05T15:44:04;6.20;;;2.22;;
37753;SDS011;23596;52.520;13.464;2023-06-05T15:46:29;10.38;;;2.28;;
37753;SDS011;23596;52.520;13.464;2023-06-05T15:48:55;14.80;;;2.45;;
37753;SDS011;23596;52.520;13.464;2023-06-05T15:51:21;7.20;;;2.53;;
37753;SDS011;23596;52.520;13.464;2023-06-05T15:53:46;8.27;;;2.55;;
37753;SDS011;23596;52.520;13.464;2023-06-05T15:56:12;10.93;;;2.80;;
37753;SDS011;23596;52.520;13.464;2023-06-05T15:58:37;9.60;;;2.75;;
37753;SDS011;23596;52.520;13.464;2023-06-05T16:01:03;4.25;;;2.50;;